X  Fermer Données météorologiques d'aviation de Metar     EBBR Brussels Airport
Température
-2°C Température
-4°C Point de rosée
86% Humidité



Vitesse
2 KM/H
1 MPH
0 M/S
1 KTS



Calme
Nord
Conditions actuelles

Claire Claire
Pression 1033.92 (hPa) - 30.53 (inHg)
Visibilité 6.2 (mile) - 10 (km)
Aéroport
Code de l'aéroport EBBR

Emplacement: Brussels Airport
Distance: 14 (km)

Metar:
EBBR 060720Z VRB01KT CAVOK M02/M04 Q1034 NOSIG

Temps: 03-06-2021 08:20 CET